sensor_id;sensor_type;location;lat;lon;timestamp;P1;durP1;ratioP1;P2;durP2;ratioP2
80675;SDS011;70041;46.088;18.268;2023-07-24T00:02:23;13.80;;;9.37;;
80675;SDS011;70041;46.088;18.268;2023-07-24T00:04:49;16.33;;;10.27;;
80675;SDS011;70041;46.088;18.268;2023-07-24T00:07:15;15.30;;;10.38;;
80675;SDS011;70041;46.088;18.268;2023-07-24T00:09:40;15.47;;;10.00;;
80675;SDS011;70041;46.088;18.268;2023-07-24T00:12:06;15.10;;;10.27;;
80675;SDS011;70041;46.088;18.268;2023-07-24T00:14:32;17.55;;;11.00;;
80675;SDS011;70041;46.088;18.268;2023-07-24T00:16:57;15.20;;;11.37;;
80675;SDS011;70041;46.088;18.268;2023-07-24T00:19:23;18.50;;;11.93;;
80675;SDS011;70041;46.088;18.268;2023-07-24T00:21:48;18.27;;;11.83;;
80675;SDS011;70041;46.088;18.268;2023-07-24T00:24:14;15.80;;;11.75;;
80675;SDS011;70041;46.088;18.268;2023-07-24T00:26:39;19.03;;;12.43;;
80675;SDS011;70041;46.088;18.268;2023-07-24T00:29:04;17.23;;;12.10;;
80675;SDS011;70041;46.088;18.268;2023-07-24T00:31:30;19.60;;;12.73;;
80675;SDS011;70041;46.088;18.268;2023-07-24T00:33:55;19.37;;;13.00;;
80675;SDS011;70041;46.088;18.268;2023-07-24T00:36:21;20.90;;;13.73;;
80675;SDS011;70041;46.088;18.268;2023-07-24T00:38:49;18.92;;;12.80;;
80675;SDS011;70041;46.088;18.268;2023-07-24T00:41:14;18.90;;;13.33;;
80675;SDS011;70041;46.088;18.268;2023-07-24T00:43:40;19.47;;;12.87;;
80675;SDS011;70041;46.088;18.268;2023-07-24T00:46:06;18.23;;;12.63;;
80675;SDS011;70041;46.088;18.268;2023-07-24T00:48:31;19.00;;;12.83;;
80675;SDS011;70041;46.088;18.268;2023-07-24T00:50:57;19.52;;;13.07;;
80675;SDS011;70041;46.088;18.268;2023-07-24T00:53:22;19.80;;;14.20;;
80675;SDS011;70041;46.088;18.268;2023-07-24T00:55:48;20.87;;;14.27;;
80675;SDS011;70041;46.088;18.268;2023-07-24T00:58:14;20.23;;;14.20;;
80675;SDS011;70041;46.088;18.268;2023-07-24T01:00:41;20.75;;;14.52;;
80675;SDS011;70041;46.088;18.268;2023-07-24T01:03:08;20.70;;;14.30;;
80675;SDS011;70041;46.088;18.268;2023-07-24T01:05:33;21.95;;;15.20;;
80675;SDS011;70041;46.088;18.268;2023-07-24T01:07:59;22.83;;;15.80;;
80675;SDS011;70041;46.088;18.268;2023-07-24T01:10:24;22.23;;;16.00;;
80675;SDS011;70041;46.088;18.268;2023-07-24T01:12:57;20.83;;;15.18;;
80675;SDS011;70041;46.088;18.268;2023-07-24T01:15:38;24.20;;;15.50;;
80675;SDS011;70041;46.088;18.268;2023-07-24T01:18:10;22.00;;;16.05;;
80675;SDS011;70041;46.088;18.268;2023-07-24T01:20:40;21.90;;;16.05;;
80675;SDS011;70041;46.088;18.268;2023-07-24T01:26:00;23.20;;;16.80;;
80675;SDS011;70041;46.088;18.268;2023-07-24T01:28:29;22.57;;;17.03;;
80675;SDS011;70041;46.088;18.268;2023-07-24T01:30:54;23.42;;;16.70;;
80675;SDS011;70041;46.088;18.268;2023-07-24T01:33:20;24.57;;;18.33;;
80675;SDS011;70041;46.088;18.268;2023-07-24T01:35:51;23.42;;;17.27;;
80675;SDS011;70041;46.088;18.268;2023-07-24T01:38:19;26.58;;;17.30;;
80675;SDS011;70041;46.088;18.268;2023-07-24T01:40:49;23.88;;;17.42;;
80675;SDS011;70041;46.088;18.268;2023-07-24T01:43:17;22.95;;;16.52;;
80675;SDS011;70041;46.088;18.268;2023-07-24T01:45:42;24.33;;;17.47;;
80675;SDS011;70041;46.088;18.268;2023-07-24T01:48:11;23.42;;;17.55;;
80675;SDS011;70041;46.088;18.268;2023-07-24T01:50:36;23.60;;;17.07;;
80675;SDS011;70041;46.088;18.268;2023-07-24T01:53:02;24.90;;;18.38;;
80675;SDS011;70041;46.088;18.268;2023-07-24T01:55:27;26.07;;;18.27;;
80675;SDS011;70041;46.088;18.268;2023-07-24T01:57:53;27.47;;;18.93;;
80675;SDS011;70041;46.088;18.268;2023-07-24T02:00:18;25.90;;;18.27;;
80675;SDS011;70041;46.088;18.268;2023-07-24T02:02:44;25.20;;;18.40;;
80675;SDS011;70041;46.088;18.268;2023-07-24T02:05:09;24.43;;;18.80;;
80675;SDS011;70041;46.088;18.268;2023-07-24T02:07:34;24.50;;;17.30;;
80675;SDS011;70041;46.088;18.268;2023-07-24T02:10:00;23.90;;;17.17;;
80675;SDS011;70041;46.088;18.268;2023-07-24T02:12:25;23.20;;;16.95;;
80675;SDS011;70041;46.088;18.268;2023-07-24T02:14:51;23.07;;;16.63;;
80675;SDS011;70041;46.088;18.268;2023-07-24T02:17:19;21.77;;;15.73;;
80675;SDS011;70041;46.088;18.268;2023-07-24T02:19:44;24.95;;;16.70;;
80675;SDS011;70041;46.088;18.268;2023-07-24T02:22:10;23.27;;;17.53;;
80675;SDS011;70041;46.088;18.268;2023-07-24T02:24:35;23.25;;;18.48;;
80675;SDS011;70041;46.088;18.268;2023-07-24T02:27:01;26.70;;;17.53;;
80675;SDS011;70041;46.088;18.268;2023-07-24T02:29:27;24.37;;;17.00;;
80675;SDS011;70041;46.088;18.268;2023-07-24T02:31:53;24.05;;;17.20;;
80675;SDS011;70041;46.088;18.268;2023-07-24T02:34:19;23.98;;;18.52;;
80675;SDS011;70041;46.088;18.268;2023-07-24T02:36:50;26.17;;;18.67;;
80675;SDS011;70041;46.088;18.268;2023-07-24T02:39:16;24.20;;;17.58;;
80675;SDS011;70041;46.088;18.268;2023-07-24T02:41:41;24.70;;;18.00;;
80675;SDS011;70041;46.088;18.268;2023-07-24T02:44:06;23.50;;;17.43;;
80675;SDS011;70041;46.088;18.268;2023-07-24T02:46:32;22.57;;;17.23;;
80675;SDS011;70041;46.088;18.268;2023-07-24T02:48:57;27.80;;;17.20;;
80675;SDS011;70041;46.088;18.268;2023-07-24T02:51:23;24.85;;;17.05;;
80675;SDS011;70041;46.088;18.268;2023-07-24T02:53:49;27.37;;;17.57;;
80675;SDS011;70041;46.088;18.268;2023-07-24T02:56:14;22.97;;;17.63;;
80675;SDS011;70041;46.088;18.268;2023-07-24T02:58:40;24.93;;;16.97;;
80675;SDS011;70041;46.088;18.268;2023-07-24T03:01:06;23.50;;;16.97;;
80675;SDS011;70041;46.088;18.268;2023-07-24T03:03:32;22.75;;;17.35;;
80675;SDS011;70041;46.088;18.268;2023-07-24T03:05:58;25.15;;;17.63;;
80675;SDS011;70041;46.088;18.268;2023-07-24T03:08:24;26.83;;;18.93;;
80675;SDS011;70041;46.088;18.268;2023-07-24T03:10:49;27.53;;;19.53;;
80675;SDS011;70041;46.088;18.268;2023-07-24T03:13:14;26.52;;;18.35;;
80675;SDS011;70041;46.088;18.268;2023-07-24T03:15:40;23.10;;;17.13;;
80675;SDS011;70041;46.088;18.268;2023-07-24T03:18:05;23.83;;;17.77;;
80675;SDS011;70041;46.088;18.268;2023-07-24T03:23:06;23.25;;;17.58;;
80675;SDS011;70041;46.088;18.268;2023-07-24T03:25:32;23.93;;;18.30;;
80675;SDS011;70041;46.088;18.268;2023-07-24T03:28:00;25.67;;;19.85;;
80675;SDS011;70041;46.088;18.268;2023-07-24T03:30:26;24.63;;;18.77;;
80675;SDS011;70041;46.088;18.268;2023-07-24T03:32:51;25.13;;;19.07;;
80675;SDS011;70041;46.088;18.268;2023-07-24T03:35:16;26.13;;;19.77;;
80675;SDS011;70041;46.088;18.268;2023-07-24T03:37:42;27.80;;;19.90;;
80675;SDS011;70041;46.088;18.268;2023-07-24T03:40:08;25.70;;;19.63;;
80675;SDS011;70041;46.088;18.268;2023-07-24T03:42:33;28.40;;;20.88;;
80675;SDS011;70041;46.088;18.268;2023-07-24T03:44:59;26.27;;;20.53;;
80675;SDS011;70041;46.088;18.268;2023-07-24T03:47:24;28.80;;;19.30;;
80675;SDS011;70041;46.088;18.268;2023-07-24T03:49:50;27.25;;;19.58;;
80675;SDS011;70041;46.088;18.268;2023-07-24T03:52:16;25.07;;;19.43;;
80675;SDS011;70041;46.088;18.268;2023-07-24T03:54:41;23.98;;;18.88;;
80675;SDS011;70041;46.088;18.268;2023-07-24T03:57:07;27.17;;;19.33;;
80675;SDS011;70041;46.088;18.268;2023-07-24T03:59:32;25.83;;;18.63;;
80675;SDS011;70041;46.088;18.268;2023-07-24T04:01:58;27.10;;;20.27;;
80675;SDS011;70041;46.088;18.268;2023-07-24T04:04:23;24.50;;;16.87;;
80675;SDS011;70041;46.088;18.268;2023-07-24T04:06:49;21.57;;;17.30;;
80675;SDS011;70041;46.088;18.268;2023-07-24T04:09:14;25.55;;;18.00;;
80675;SDS011;70041;46.088;18.268;2023-07-24T04:11:40;28.23;;;20.33;;
80675;SDS011;70041;46.088;18.268;2023-07-24T04:14:06;27.77;;;20.88;;
80675;SDS011;70041;46.088;18.268;2023-07-24T04:16:32;30.57;;;21.93;;
80675;SDS011;70041;46.088;18.268;2023-07-24T04:18:57;28.73;;;21.83;;
80675;SDS011;70041;46.088;18.268;2023-07-24T04:21:23;29.13;;;22.47;;
80675;SDS011;70041;46.088;18.268;2023-07-24T04:23:48;28.35;;;21.67;;
80675;SDS011;70041;46.088;18.268;2023-07-24T04:26:14;31.20;;;22.63;;
80675;SDS011;70041;46.088;18.268;2023-07-24T04:28:39;29.13;;;21.57;;
80675;SDS011;70041;46.088;18.268;2023-07-24T04:31:04;28.50;;;20.73;;
80675;SDS011;70041;46.088;18.268;2023-07-24T04:33:30;30.10;;;20.83;;
80675;SDS011;70041;46.088;18.268;2023-07-24T04:35:56;27.87;;;20.77;;
80675;SDS011;70041;46.088;18.268;2023-07-24T04:38:21;27.05;;;21.13;;
80675;SDS011;70041;46.088;18.268;2023-07-24T04:40:47;29.67;;;21.83;;
80675;SDS011;70041;46.088;18.268;2023-07-24T04:43:13;28.73;;;20.20;;
80675;SDS011;70041;46.088;18.268;2023-07-24T04:45:38;28.77;;;21.23;;
80675;SDS011;70041;46.088;18.268;2023-07-24T04:48:04;28.00;;;20.20;;
80675;SDS011;70041;46.088;18.268;2023-07-24T04:50:30;26.70;;;21.70;;
80675;SDS011;70041;46.088;18.268;2023-07-24T04:52:55;28.97;;;21.73;;
80675;SDS011;70041;46.088;18.268;2023-07-24T04:55:21;30.77;;;21.90;;
80675;SDS011;70041;46.088;18.268;2023-07-24T04:57:46;28.63;;;21.58;;
80675;SDS011;70041;46.088;18.268;2023-07-24T05:00:12;30.75;;;20.50;;
80675;SDS011;70041;46.088;18.268;2023-07-24T05:02:38;29.40;;;21.63;;
80675;SDS011;70041;46.088;18.268;2023-07-24T05:05:04;27.88;;;21.17;;
80675;SDS011;70041;46.088;18.268;2023-07-24T05:07:30;30.43;;;22.00;;
80675;SDS011;70041;46.088;18.268;2023-07-24T05:09:55;28.77;;;21.53;;
80675;SDS011;70041;46.088;18.268;2023-07-24T05:12:20;31.00;;;21.57;;
80675;SDS011;70041;46.088;18.268;2023-07-24T05:14:52;28.40;;;21.50;;
80675;SDS011;70041;46.088;18.268;2023-07-24T05:17:20;27.08;;;20.77;;
80675;SDS011;70041;46.088;18.268;2023-07-24T05:19:46;26.63;;;19.63;;
80675;SDS011;70041;46.088;18.268;2023-07-24T05:22:11;27.08;;;20.30;;
80675;SDS011;70041;46.088;18.268;2023-07-24T05:24:37;29.67;;;20.23;;
80675;SDS011;70041;46.088;18.268;2023-07-24T05:27:05;24.60;;;19.08;;
80675;SDS011;70041;46.088;18.268;2023-07-24T05:29:31;28.73;;;19.40;;
80675;SDS011;70041;46.088;18.268;2023-07-24T05:31:57;24.10;;;18.38;;
80675;SDS011;70041;46.088;18.268;2023-07-24T05:34:23;27.45;;;19.15;;
80675;SDS011;70041;46.088;18.268;2023-07-24T05:36:49;26.40;;;18.60;;
80675;SDS011;70041;46.088;18.268;2023-07-24T05:39:15;24.83;;;17.97;;
80675;SDS011;70041;46.088;18.268;2023-07-24T05:41:40;26.43;;;18.33;;
80675;SDS011;70041;46.088;18.268;2023-07-24T05:44:05;25.20;;;18.23;;
80675;SDS011;70041;46.088;18.268;2023-07-24T05:46:31;23.03;;;16.90;;
80675;SDS011;70041;46.088;18.268;2023-07-24T05:48:56;23.98;;;15.63;;
80675;SDS011;70041;46.088;18.268;2023-07-24T05:51:22;22.83;;;14.90;;
80675;SDS011;70041;46.088;18.268;2023-07-24T05:53:47;24.50;;;15.43;;
80675;SDS011;70041;46.088;18.268;2023-07-24T05:56:13;21.67;;;15.10;;
80675;SDS011;70041;46.088;18.268;2023-07-24T05:58:38;24.97;;;16.50;;
80675;SDS011;70041;46.088;18.268;2023-07-24T06:01:04;21.63;;;14.17;;
80675;SDS011;70041;46.088;18.268;2023-07-24T06:03:29;23.80;;;14.60;;
80675;SDS011;70041;46.088;18.268;2023-07-24T06:05:55;20.02;;;14.32;;
80675;SDS011;70041;46.088;18.268;2023-07-24T06:08:21;21.00;;;13.88;;
80675;SDS011;70041;46.088;18.268;2023-07-24T06:10:47;22.70;;;13.37;;
80675;SDS011;70041;46.088;18.268;2023-07-24T06:13:14;21.30;;;12.68;;
80675;SDS011;70041;46.088;18.268;2023-07-24T06:15:43;22.13;;;12.82;;
80675;SDS011;70041;46.088;18.268;2023-07-24T06:18:09;18.90;;;11.40;;
80675;SDS011;70041;46.088;18.268;2023-07-24T06:20:35;17.60;;;12.27;;
80675;SDS011;70041;46.088;18.268;2023-07-24T06:23:00;16.90;;;11.32;;
80675;SDS011;70041;46.088;18.268;2023-07-24T06:25:28;18.40;;;10.57;;
80675;SDS011;70041;46.088;18.268;2023-07-24T06:27:54;19.27;;;11.07;;
80675;SDS011;70041;46.088;18.268;2023-07-24T06:30:19;16.30;;;10.10;;
80675;SDS011;70041;46.088;18.268;2023-07-24T06:32:44;17.43;;;9.77;;
80675;SDS011;70041;46.088;18.268;2023-07-24T06:35:10;16.53;;;9.13;;
80675;SDS011;70041;46.088;18.268;2023-07-24T06:37:35;17.92;;;9.75;;
80675;SDS011;70041;46.088;18.268;2023-07-24T06:40:01;18.80;;;10.73;;
80675;SDS011;70041;46.088;18.268;2023-07-24T06:42:26;15.33;;;8.97;;
80675;SDS011;70041;46.088;18.268;2023-07-24T06:44:52;14.80;;;8.87;;
80675;SDS011;70041;46.088;18.268;2023-07-24T06:47:17;16.73;;;8.57;;
80675;SDS011;70041;46.088;18.268;2023-07-24T06:49:43;19.30;;;9.77;;
80675;SDS011;70041;46.088;18.268;2023-07-24T06:52:09;17.20;;;8.80;;
80675;SDS011;70041;46.088;18.268;2023-07-24T06:54:34;14.50;;;7.50;;
80675;SDS011;70041;46.088;18.268;2023-07-24T06:56:59;22.37;;;8.23;;
80675;SDS011;70041;46.088;18.268;2023-07-24T06:59:25;17.30;;;7.97;;
80675;SDS011;70041;46.088;18.268;2023-07-24T07:01:50;17.80;;;8.60;;
80675;SDS011;70041;46.088;18.268;2023-07-24T07:04:16;19.75;;;8.40;;
80675;SDS011;70041;46.088;18.268;2023-07-24T07:06:41;16.50;;;8.43;;
80675;SDS011;70041;46.088;18.268;2023-07-24T07:09:07;15.40;;;8.10;;
80675;SDS011;70041;46.088;18.268;2023-07-24T07:11:32;17.35;;;8.40;;
80675;SDS011;70041;46.088;18.268;2023-07-24T07:13:58;15.40;;;7.87;;
80675;SDS011;70041;46.088;18.268;2023-07-24T07:16:23;16.93;;;8.87;;
80675;SDS011;70041;46.088;18.268;2023-07-24T07:18:51;18.50;;;8.88;;
80675;SDS011;70041;46.088;18.268;2023-07-24T07:21:17;16.60;;;7.70;;
80675;SDS011;70041;46.088;18.268;2023-07-24T07:23:42;16.40;;;9.10;;
80675;SDS011;70041;46.088;18.268;2023-07-24T07:26:08;17.83;;;9.23;;
80675;SDS011;70041;46.088;18.268;2023-07-24T07:28:33;20.00;;;8.65;;
80675;SDS011;70041;46.088;18.268;2023-07-24T07:30:58;17.70;;;8.07;;
80675;SDS011;70041;46.088;18.268;2023-07-24T07:33:24;17.57;;;8.43;;
80675;SDS011;70041;46.088;18.268;2023-07-24T07:35:49;15.57;;;7.50;;
80675;SDS011;70041;46.088;18.268;2023-07-24T07:38:15;16.77;;;7.77;;
80675;SDS011;70041;46.088;18.268;2023-07-24T07:40:40;19.03;;;8.43;;
80675;SDS011;70041;46.088;18.268;2023-07-24T07:43:06;16.17;;;8.70;;
80675;SDS011;70041;46.088;18.268;2023-07-24T07:45:31;19.03;;;9.33;;
80675;SDS011;70041;46.088;18.268;2023-07-24T07:47:57;17.20;;;8.77;;
80675;SDS011;70041;46.088;18.268;2023-07-24T07:50:22;14.97;;;7.90;;
80675;SDS011;70041;46.088;18.268;2023-07-24T07:52:51;14.48;;;7.93;;
80675;SDS011;70041;46.088;18.268;2023-07-24T07:55:20;17.80;;;8.70;;
80675;SDS011;70041;46.088;18.268;2023-07-24T07:57:45;15.80;;;7.97;;
80675;SDS011;70041;46.088;18.268;2023-07-24T08:00:11;16.05;;;7.97;;
80675;SDS011;70041;46.088;18.268;2023-07-24T08:02:37;18.13;;;8.10;;
80675;SDS011;70041;46.088;18.268;2023-07-24T08:05:07;16.25;;;8.43;;
80675;SDS011;70041;46.088;18.268;2023-07-24T08:07:33;15.65;;;8.18;;
80675;SDS011;70041;46.088;18.268;2023-07-24T08:09:58;17.53;;;7.80;;
80675;SDS011;70041;46.088;18.268;2023-07-24T08:12:24;16.23;;;7.73;;
80675;SDS011;70041;46.088;18.268;2023-07-24T08:14:49;18.17;;;7.80;;
80675;SDS011;70041;46.088;18.268;2023-07-24T08:17:15;19.57;;;8.40;;
80675;SDS011;70041;46.088;18.268;2023-07-24T08:19:40;15.73;;;7.95;;
80675;SDS011;70041;46.088;18.268;2023-07-24T08:22:06;15.80;;;7.87;;
80675;SDS011;70041;46.088;18.268;2023-07-24T08:24:34;16.83;;;7.87;;
80675;SDS011;70041;46.088;18.268;2023-07-24T08:27:00;15.23;;;7.35;;
80675;SDS011;70041;46.088;18.268;2023-07-24T08:29:26;15.23;;;7.73;;
80675;SDS011;70041;46.088;18.268;2023-07-24T08:31:51;15.98;;;7.43;;
80675;SDS011;70041;46.088;18.268;2023-07-24T08:34:17;16.53;;;8.27;;
80675;SDS011;70041;46.088;18.268;2023-07-24T08:36:42;14.70;;;7.73;;
80675;SDS011;70041;46.088;18.268;2023-07-24T08:39:08;14.93;;;7.77;;
80675;SDS011;70041;46.088;18.268;2023-07-24T08:41:34;17.73;;;7.90;;
80675;SDS011;70041;46.088;18.268;2023-07-24T08:44:02;18.33;;;8.27;;
80675;SDS011;70041;46.088;18.268;2023-07-24T08:46:28;17.65;;;8.23;;
80675;SDS011;70041;46.088;18.268;2023-07-24T08:48:55;16.23;;;7.18;;
80675;SDS011;70041;46.088;18.268;2023-07-24T08:51:21;18.77;;;8.60;;
80675;SDS011;70041;46.088;18.268;2023-07-24T08:53:47;17.98;;;8.13;;
80675;SDS011;70041;46.088;18.268;2023-07-24T08:56:13;19.40;;;7.88;;
80675;SDS011;70041;46.088;18.268;2023-07-24T08:58:40;15.85;;;6.88;;
80675;SDS011;70041;46.088;18.268;2023-07-24T09:01:06;14.50;;;7.40;;
80675;SDS011;70041;46.088;18.268;2023-07-24T09:03:32;17.25;;;8.30;;
80675;SDS011;70041;46.088;18.268;2023-07-24T09:05:58;16.85;;;8.45;;
80675;SDS011;70041;46.088;18.268;2023-07-24T09:08:32;16.63;;;7.75;;
80675;SDS011;70041;46.088;18.268;2023-07-24T09:11:01;17.48;;;8.07;;
80675;SDS011;70041;46.088;18.268;2023-07-24T09:13:28;16.13;;;8.10;;
80675;SDS011;70041;46.088;18.268;2023-07-24T09:15:54;15.35;;;8.43;;
80675;SDS011;70041;46.088;18.268;2023-07-24T09:18:20;17.58;;;7.85;;
80675;SDS011;70041;46.088;18.268;2023-07-24T09:20:46;15.77;;;7.75;;
80675;SDS011;70041;46.088;18.268;2023-07-24T09:23:13;15.75;;;7.72;;
80675;SDS011;70041;46.088;18.268;2023-07-24T09:25:40;16.27;;;7.57;;
80675;SDS011;70041;46.088;18.268;2023-07-24T09:28:14;15.00;;;7.65;;
80675;SDS011;70041;46.088;18.268;2023-07-24T09:30:56;15.90;;;8.18;;
80675;SDS011;70041;46.088;18.268;2023-07-24T09:33:39;15.25;;;7.80;;
80675;SDS011;70041;46.088;18.268;2023-07-24T09:36:06;16.90;;;8.32;;
80675;SDS011;70041;46.088;18.268;2023-07-24T09:38:33;16.83;;;8.37;;
80675;SDS011;70041;46.088;18.268;2023-07-24T09:41:01;16.30;;;8.25;;
80675;SDS011;70041;46.088;18.268;2023-07-24T09:43:28;16.27;;;7.63;;
80675;SDS011;70041;46.088;18.268;2023-07-24T09:45:55;16.70;;;7.68;;
80675;SDS011;70041;46.088;18.268;2023-07-24T09:48:22;19.15;;;8.60;;
80675;SDS011;70041;46.088;18.268;2023-07-24T09:50:53;16.40;;;7.63;;
80675;SDS011;70041;46.088;18.268;2023-07-24T09:53:21;17.23;;;8.23;;
80675;SDS011;70041;46.088;18.268;2023-07-24T09:56:01;14.85;;;7.63;;
80675;SDS011;70041;46.088;18.268;2023-07-24T09:58:28;15.88;;;7.32;;
80675;SDS011;70041;46.088;18.268;2023-07-24T10:00:55;17.42;;;7.65;;
80675;SDS011;70041;46.088;18.268;2023-07-24T10:03:21;14.83;;;7.83;;
80675;SDS011;70041;46.088;18.268;2023-07-24T10:05:47;20.05;;;8.27;;
80675;SDS011;70041;46.088;18.268;2023-07-24T10:08:24;14.60;;;8.18;;
80675;SDS011;70041;46.088;18.268;2023-07-24T10:10:50;19.70;;;8.68;;
80675;SDS011;70041;46.088;18.268;2023-07-24T10:13:18;14.93;;;8.00;;
80675;SDS011;70041;46.088;18.268;2023-07-24T10:15:45;16.37;;;8.00;;
80675;SDS011;70041;46.088;18.268;2023-07-24T10:18:12;19.05;;;7.63;;
80675;SDS011;70041;46.088;18.268;2023-07-24T10:20:38;15.90;;;7.32;;
80675;SDS011;70041;46.088;18.268;2023-07-24T10:23:06;17.75;;;7.70;;
80675;SDS011;70041;46.088;18.268;2023-07-24T10:25:33;16.63;;;7.90;;
80675;SDS011;70041;46.088;18.268;2023-07-24T10:28:01;14.20;;;7.68;;
80675;SDS011;70041;46.088;18.268;2023-07-24T10:30:33;16.48;;;7.55;;
80675;SDS011;70041;46.088;18.268;2023-07-24T10:33:12;13.68;;;6.95;;
80675;SDS011;70041;46.088;18.268;2023-07-24T10:35:43;16.02;;;8.10;;
80675;SDS011;70041;46.088;18.268;2023-07-24T10:38:09;15.03;;;7.53;;
80675;SDS011;70041;46.088;18.268;2023-07-24T10:40:35;16.52;;;7.53;;
80675;SDS011;70041;46.088;18.268;2023-07-24T10:43:04;15.30;;;7.13;;
80675;SDS011;70041;46.088;18.268;2023-07-24T10:45:47;14.40;;;7.27;;
80675;SDS011;70041;46.088;18.268;2023-07-24T10:48:15;13.38;;;7.50;;
80675;SDS011;70041;46.088;18.268;2023-07-24T10:50:43;13.90;;;7.60;;
80675;SDS011;70041;46.088;18.268;2023-07-24T10:53:10;16.00;;;6.93;;
80675;SDS011;70041;46.088;18.268;2023-07-24T10:55:37;13.77;;;7.28;;
80675;SDS011;70041;46.088;18.268;2023-07-24T10:58:03;16.00;;;7.47;;
80675;SDS011;70041;46.088;18.268;2023-07-24T11:00:28;13.18;;;6.45;;
80675;SDS011;70041;46.088;18.268;2023-07-24T11:02:54;13.63;;;6.13;;
80675;SDS011;70041;46.088;18.268;2023-07-24T11:05:23;14.95;;;6.60;;
80675;SDS011;70041;46.088;18.268;2023-07-24T11:07:48;15.15;;;6.70;;
80675;SDS011;70041;46.088;18.268;2023-07-24T11:10:17;13.63;;;6.60;;
80675;SDS011;70041;46.088;18.268;2023-07-24T11:12:44;13.13;;;6.13;;
80675;SDS011;70041;46.088;18.268;2023-07-24T11:15:10;13.37;;;6.73;;
80675;SDS011;70041;46.088;18.268;2023-07-24T11:17:37;14.93;;;6.85;;
80675;SDS011;70041;46.088;18.268;2023-07-24T11:20:12;14.13;;;6.72;;
80675;SDS011;70041;46.088;18.268;2023-07-24T11:22:39;14.77;;;6.90;;
80675;SDS011;70041;46.088;18.268;2023-07-24T11:25:06;13.60;;;7.10;;
80675;SDS011;70041;46.088;18.268;2023-07-24T11:27:32;17.73;;;6.60;;
80675;SDS011;70041;46.088;18.268;2023-07-24T11:29:58;14.63;;;7.25;;
80675;SDS011;70041;46.088;18.268;2023-07-24T11:32:26;15.25;;;6.70;;
80675;SDS011;70041;46.088;18.268;2023-07-24T11:34:52;11.50;;;6.20;;
80675;SDS011;70041;46.088;18.268;2023-07-24T11:37:17;12.80;;;7.05;;
80675;SDS011;70041;46.088;18.268;2023-07-24T11:39:54;14.38;;;7.47;;
80675;SDS011;70041;46.088;18.268;2023-07-24T11:42:26;14.95;;;7.57;;
80675;SDS011;70041;46.088;18.268;2023-07-24T11:44:52;15.53;;;7.87;;
80675;SDS011;70041;46.088;18.268;2023-07-24T11:47:18;15.35;;;7.32;;
80675;SDS011;70041;46.088;18.268;2023-07-24T11:49:43;16.33;;;7.43;;
80675;SDS011;70041;46.088;18.268;2023-07-24T11:52:13;13.30;;;6.45;;
80675;SDS011;70041;46.088;18.268;2023-07-24T11:54:39;15.57;;;6.90;;
80675;SDS011;70041;46.088;18.268;2023-07-24T11:57:25;13.27;;;7.10;;
80675;SDS011;70041;46.088;18.268;2023-07-24T11:59:50;16.15;;;8.05;;
80675;SDS011;70041;46.088;18.268;2023-07-24T12:02:15;15.53;;;7.17;;
80675;SDS011;70041;46.088;18.268;2023-07-24T12:04:41;16.43;;;7.03;;
80675;SDS011;70041;46.088;18.268;2023-07-24T12:07:09;14.98;;;7.05;;
80675;SDS011;70041;46.088;18.268;2023-07-24T12:09:35;16.13;;;7.50;;
80675;SDS011;70041;46.088;18.268;2023-07-24T12:12:04;15.43;;;7.97;;
80675;SDS011;70041;46.088;18.268;2023-07-24T12:14:30;14.27;;;7.80;;
80675;SDS011;70041;46.088;18.268;2023-07-24T12:17:03;15.02;;;7.40;;
80675;SDS011;70041;46.088;18.268;2023-07-24T12:19:31;15.52;;;7.97;;
80675;SDS011;70041;46.088;18.268;2023-07-24T12:21:56;13.43;;;6.97;;
80675;SDS011;70041;46.088;18.268;2023-07-24T12:24:22;16.20;;;7.67;;
80675;SDS011;70041;46.088;18.268;2023-07-24T12:26:47;15.37;;;7.93;;
80675;SDS011;70041;46.088;18.268;2023-07-24T12:29:12;15.17;;;8.17;;
80675;SDS011;70041;46.088;18.268;2023-07-24T12:31:38;16.23;;;8.00;;
80675;SDS011;70041;46.088;18.268;2023-07-24T12:34:04;14.17;;;7.43;;
80675;SDS011;70041;46.088;18.268;2023-07-24T12:36:29;14.97;;;7.83;;
80675;SDS011;70041;46.088;18.268;2023-07-24T12:38:54;15.63;;;8.65;;
80675;SDS011;70041;46.088;18.268;2023-07-24T12:41:20;17.00;;;8.27;;
80675;SDS011;70041;46.088;18.268;2023-07-24T12:43:45;16.27;;;7.77;;
80675;SDS011;70041;46.088;18.268;2023-07-24T12:46:11;19.03;;;9.40;;
80675;SDS011;70041;46.088;18.268;2023-07-24T12:48:36;14.50;;;7.95;;
80675;SDS011;70041;46.088;18.268;2023-07-24T12:51:02;15.07;;;8.60;;
80675;SDS011;70041;46.088;18.268;2023-07-24T12:53:28;16.33;;;8.65;;
80675;SDS011;70041;46.088;18.268;2023-07-24T12:55:53;15.80;;;8.07;;
80675;SDS011;70041;46.088;18.268;2023-07-24T12:58:19;15.70;;;8.67;;
80675;SDS011;70041;46.088;18.268;2023-07-24T13:00:44;18.70;;;9.63;;
80675;SDS011;70041;46.088;18.268;2023-07-24T13:03:10;17.92;;;8.73;;
80675;SDS011;70041;46.088;18.268;2023-07-24T13:05:35;17.00;;;8.20;;
80675;SDS011;70041;46.088;18.268;2023-07-24T13:08:02;17.00;;;8.20;;
80675;SDS011;70041;46.088;18.268;2023-07-24T13:10:27;15.13;;;8.87;;
80675;SDS011;70041;46.088;18.268;2023-07-24T13:12:53;17.52;;;9.15;;
80675;SDS011;70041;46.088;18.268;2023-07-24T13:15:18;16.77;;;8.27;;
80675;SDS011;70041;46.088;18.268;2023-07-24T13:17:43;17.97;;;10.03;;
80675;SDS011;70041;46.088;18.268;2023-07-24T13:20:09;15.53;;;8.00;;
80675;SDS011;70041;46.088;18.268;2023-07-24T13:22:35;16.50;;;9.02;;
80675;SDS011;70041;46.088;18.268;2023-07-24T13:25:00;17.07;;;9.10;;
80675;SDS011;70041;46.088;18.268;2023-07-24T13:27:26;19.20;;;8.35;;
80675;SDS011;70041;46.088;18.268;2023-07-24T13:29:51;17.57;;;8.30;;
80675;SDS011;70041;46.088;18.268;2023-07-24T13:32:17;15.50;;;9.50;;
80675;SDS011;70041;46.088;18.268;2023-07-24T13:34:42;15.80;;;9.07;;
80675;SDS011;70041;46.088;18.268;2023-07-24T13:37:10;15.77;;;9.13;;
80675;SDS011;70041;46.088;18.268;2023-07-24T13:39:35;17.27;;;8.88;;
80675;SDS011;70041;46.088;18.268;2023-07-24T13:42:01;15.55;;;9.35;;
80675;SDS011;70041;46.088;18.268;2023-07-24T13:44:26;18.60;;;9.30;;
80675;SDS011;70041;46.088;18.268;2023-07-24T13:46:52;17.03;;;9.50;;
80675;SDS011;70041;46.088;18.268;2023-07-24T13:49:18;15.90;;;9.23;;
80675;SDS011;70041;46.088;18.268;2023-07-24T13:51:44;17.40;;;8.80;;
80675;SDS011;70041;46.088;18.268;2023-07-24T13:54:10;16.38;;;9.15;;
80675;SDS011;70041;46.088;18.268;2023-07-24T13:56:35;15.20;;;8.87;;
80675;SDS011;70041;46.088;18.268;2023-07-24T13:59:01;17.17;;;8.85;;
80675;SDS011;70041;46.088;18.268;2023-07-24T14:01:26;17.30;;;9.37;;
80675;SDS011;70041;46.088;18.268;2023-07-24T14:03:52;18.03;;;8.97;;
80675;SDS011;70041;46.088;18.268;2023-07-24T14:06:17;16.83;;;8.63;;
80675;SDS011;70041;46.088;18.268;2023-07-24T14:08:43;15.27;;;8.90;;
80675;SDS011;70041;46.088;18.268;2023-07-24T14:11:09;18.77;;;8.38;;
80675;SDS011;70041;46.088;18.268;2023-07-24T14:13:34;17.40;;;8.87;;
80675;SDS011;70041;46.088;18.268;2023-07-24T14:15:59;17.57;;;9.77;;
80675;SDS011;70041;46.088;18.268;2023-07-24T14:18:25;16.87;;;9.23;;